createdAt,value
2023-05-15T00:00:25.737Z,2.68
2023-05-15T00:01:25.783Z,2.72
2023-05-15T00:02:25.875Z,3.23
2023-05-15T00:03:26.020Z,2.68
2023-05-15T00:04:25.861Z,2.69
2023-05-15T00:05:26.127Z,2.50
2023-05-15T00:06:25.901Z,2.27
2023-05-15T00:07:26.015Z,2.01
2023-05-15T00:08:26.013Z,2.22
2023-05-15T00:09:26.026Z,1.95
2023-05-15T00:10:26.039Z,2.17
2023-05-15T00:11:26.080Z,1.92
2023-05-15T00:12:26.122Z,1.73
2023-05-15T00:13:26.079Z,1.74
2023-05-15T00:14:26.114Z,1.94
2023-05-15T00:15:26.553Z,1.76
2023-05-15T00:16:26.204Z,1.20
2023-05-15T00:17:26.206Z,1.67
2023-05-15T00:18:26.234Z,1.67
2023-05-15T00:19:26.295Z,1.63
2023-05-15T00:20:26.304Z,1.21
2023-05-15T00:21:26.309Z,1.55
2023-05-15T00:22:26.359Z,1.80
2023-05-15T00:23:26.357Z,1.87
2023-05-15T00:24:26.416Z,1.42
2023-05-15T00:25:26.740Z,1.36
2023-05-15T00:26:26.492Z,1.82
2023-05-15T00:27:26.523Z,1.94
2023-05-15T00:28:26.529Z,1.60
2023-05-15T00:29:26.522Z,1.68
2023-05-15T00:30:26.578Z,1.55
2023-05-15T00:31:26.660Z,1.79
2023-05-15T00:32:26.718Z,1.59
2023-05-15T00:33:26.664Z,1.36
2023-05-15T00:34:26.654Z,1.92
2023-05-15T00:35:26.890Z,1.98
2023-05-15T00:36:26.708Z,1.91
2023-05-15T00:37:26.764Z,1.71
2023-05-15T00:38:26.752Z,2.06
2023-05-15T00:39:26.781Z,2.29
2023-05-15T00:40:26.848Z,3.24
2023-05-15T00:41:26.810Z,3.15
2023-05-15T00:42:26.856Z,3.51
2023-05-15T00:43:26.857Z,3.32
2023-05-15T00:44:26.918Z,3.34
2023-05-15T00:45:27.040Z,2.92
2023-05-15T00:46:26.999Z,2.75
2023-05-15T00:47:27.010Z,2.73
2023-05-15T00:48:27.051Z,2.84
2023-05-15T00:49:27.091Z,2.83
2023-05-15T00:50:27.067Z,2.68
2023-05-15T00:51:27.177Z,2.16
2023-05-15T00:52:27.136Z,2.70
2023-05-15T00:53:27.210Z,2.89
2023-05-15T00:54:27.157Z,2.09
2023-05-15T00:55:27.320Z,2.33
2023-05-15T00:56:27.216Z,2.28
2023-05-15T00:57:27.254Z,2.15
2023-05-15T00:58:27.267Z,1.94
2023-05-15T00:59:27.315Z,2.08
2023-05-15T01:00:27.291Z,1.85
2023-05-15T01:01:27.504Z,1.53
2023-05-15T01:02:27.414Z,2.08
2023-05-15T01:03:27.396Z,2.25
2023-05-15T01:04:27.419Z,1.85
2023-05-15T01:05:27.599Z,1.66
2023-05-15T01:06:27.438Z,1.77
2023-05-15T01:07:27.532Z,1.96
2023-05-15T01:08:27.554Z,1.41
2023-05-15T01:09:27.545Z,1.60
2023-05-15T01:10:27.546Z,1.60
2023-05-15T01:11:27.589Z,1.63
2023-05-15T01:12:27.607Z,1.57
2023-05-15T01:13:27.614Z,1.52
2023-05-15T01:14:27.663Z,1.53
2023-05-15T01:15:27.676Z,1.50
2023-05-15T01:16:27.719Z,1.92
2023-05-15T01:17:27.729Z,1.71
2023-05-15T01:18:27.823Z,1.66
2023-05-15T01:19:27.832Z,1.51
2023-05-15T01:20:27.810Z,1.31
2023-05-15T01:21:27.814Z,1.88
2023-05-15T01:22:27.832Z,1.56
2023-05-15T01:23:27.827Z,1.80
2023-05-15T01:24:27.882Z,1.30
2023-05-15T01:25:27.914Z,1.68
2023-05-15T01:26:27.950Z,1.30
2023-05-15T01:27:27.973Z,1.42
2023-05-15T01:28:27.982Z,1.08
2023-05-15T01:29:28.011Z,1.59
2023-05-15T01:30:28.029Z,1.33
2023-05-15T01:31:28.094Z,1.59
2023-05-15T01:32:28.119Z,1.49
2023-05-15T01:33:28.093Z,1.24
2023-05-15T01:34:28.135Z,1.60
2023-05-15T01:35:28.380Z,1.14
2023-05-15T01:36:28.179Z,1.48
2023-05-15T01:37:28.205Z,1.21
2023-05-15T01:38:28.281Z,1.29
2023-05-15T01:39:28.337Z,1.27
2023-05-15T01:40:28.344Z,1.50
2023-05-15T01:41:28.389Z,1.33
2023-05-15T01:42:28.410Z,1.28
2023-05-15T01:43:28.433Z,1.36
2023-05-15T01:44:28.471Z,1.39
2023-05-15T01:45:28.516Z,1.54
2023-05-15T01:46:30.966Z,1.31
2023-05-15T01:47:28.530Z,1.22
2023-05-15T01:48:28.503Z,1.56
2023-05-15T01:49:28.482Z,1.18
2023-05-15T01:50:28.466Z,1.21
2023-05-15T01:51:28.514Z,1.53
2023-05-15T01:52:28.518Z,1.34
2023-05-15T01:53:28.461Z,1.32
2023-05-15T01:54:28.471Z,1.47
2023-05-15T01:55:28.465Z,1.51
2023-05-15T01:56:28.436Z,1.19
2023-05-15T01:57:28.496Z,1.38
2023-05-15T01:58:28.406Z,1.22
2023-05-15T01:59:28.447Z,1.23
2023-05-15T02:00:28.412Z,1.41
2023-05-15T02:01:28.439Z,1.11
2023-05-15T02:02:28.464Z,1.10
2023-05-15T02:03:28.516Z,0.80
2023-05-15T02:04:28.415Z,1.17
2023-05-15T02:05:28.493Z,1.34
2023-05-15T02:06:28.385Z,1.44
2023-05-15T02:07:28.348Z,1.28
2023-05-15T02:08:28.385Z,1.10
2023-05-15T02:09:28.375Z,1.42
2023-05-15T02:10:28.363Z,1.16
2023-05-15T02:11:28.370Z,1.42
2023-05-15T02:12:28.377Z,1.28
2023-05-15T02:13:28.361Z,1.55
2023-05-15T02:14:28.344Z,2.30
2023-05-15T02:15:28.331Z,2.15
2023-05-15T02:16:28.358Z,1.88
2023-05-15T02:17:28.311Z,1.65
2023-05-15T02:18:28.319Z,1.67
2023-05-15T02:19:28.299Z,2.04
2023-05-15T02:20:28.281Z,1.76
2023-05-15T02:21:28.285Z,1.46
2023-05-15T02:22:28.291Z,2.70
2023-05-15T02:23:28.244Z,2.04
2023-05-15T02:24:28.268Z,2.82
2023-05-15T02:25:28.253Z,5.07
2023-05-15T02:26:28.257Z,2.33
2023-05-15T02:27:28.257Z,3.32
2023-05-15T02:28:28.258Z,3.82
2023-05-15T02:29:28.254Z,2.92
2023-05-15T02:30:28.242Z,2.20
2023-05-15T02:31:28.245Z,1.59
2023-05-15T02:32:28.220Z,2.46
2023-05-15T02:33:28.254Z,1.93
2023-05-15T02:34:28.212Z,2.14
2023-05-15T02:35:28.213Z,2.01
2023-05-15T02:36:28.202Z,2.18
2023-05-15T02:37:28.187Z,2.26
2023-05-15T02:38:28.191Z,2.76
2023-05-15T02:39:28.168Z,4.39
2023-05-15T02:40:28.164Z,3.42
2023-05-15T02:41:28.156Z,2.21
2023-05-15T02:42:28.178Z,2.04
2023-05-15T02:43:28.155Z,1.17
2023-05-15T02:44:28.151Z,1.45
2023-05-15T02:45:28.326Z,1.71
2023-05-15T02:46:28.189Z,1.30
2023-05-15T02:47:28.163Z,1.43
2023-05-15T02:48:28.142Z,1.29
2023-05-15T02:49:28.158Z,1.22
2023-05-15T02:50:28.096Z,1.36
2023-05-15T02:51:28.098Z,0.99
2023-05-15T02:52:28.068Z,0.80
2023-05-15T02:53:28.061Z,0.96
2023-05-15T02:54:28.079Z,1.22
2023-05-15T02:55:28.073Z,0.98
2023-05-15T02:56:28.101Z,1.09
2023-05-15T02:57:28.180Z,0.83
2023-05-15T02:58:28.143Z,1.21
2023-05-15T02:59:28.146Z,1.54
2023-05-15T03:00:28.168Z,0.89
2023-05-15T03:01:28.259Z,1.02
2023-05-15T03:02:28.265Z,0.77
2023-05-15T03:03:28.289Z,0.77
2023-05-15T03:04:28.370Z,1.57
2023-05-15T03:05:28.616Z,0.94
2023-05-15T03:06:28.345Z,1.24
2023-05-15T03:07:28.372Z,1.19
2023-05-15T03:08:28.434Z,1.06
2023-05-15T03:09:28.476Z,1.24
2023-05-15T03:10:28.479Z,1.41
2023-05-15T03:11:28.492Z,1.59
2023-05-15T03:12:28.503Z,1.48
2023-05-15T03:13:28.557Z,1.32
2023-05-15T03:14:28.586Z,1.34
2023-05-15T03:15:28.631Z,2.27
2023-05-15T03:16:28.727Z,1.83
2023-05-15T03:17:28.697Z,1.51
2023-05-15T03:18:28.748Z,1.47
2023-05-15T03:19:28.792Z,1.62
2023-05-15T03:20:28.854Z,1.43
2023-05-15T03:21:28.903Z,1.33
2023-05-15T03:22:28.908Z,1.57
2023-05-15T03:23:28.936Z,1.56
2023-05-15T03:24:28.968Z,1.14
2023-05-15T03:25:28.941Z,0.90
2023-05-15T03:26:28.995Z,1.22
2023-05-15T03:27:28.994Z,1.66
2023-05-15T03:28:29.028Z,1.20
2023-05-15T03:29:29.042Z,1.34
2023-05-15T03:30:29.066Z,1.70
2023-05-15T03:31:29.192Z,0.94
2023-05-15T03:32:29.155Z,1.29
2023-05-15T03:33:29.193Z,1.58
2023-05-15T03:34:29.247Z,1.34
2023-05-15T03:35:29.259Z,0.95
2023-05-15T03:36:29.303Z,1.26
2023-05-15T03:37:29.296Z,1.20
2023-05-15T03:38:29.315Z,1.13
2023-05-15T03:39:29.335Z,1.47
2023-05-15T03:40:29.351Z,0.85
2023-05-15T03:41:29.382Z,0.95
2023-05-15T03:42:29.396Z,1.28
2023-05-15T03:43:29.383Z,1.28
2023-05-15T03:44:29.402Z,1.11
2023-05-15T03:45:29.417Z,1.45
2023-05-15T03:46:29.450Z,1.47
2023-05-15T03:47:29.499Z,1.21
2023-05-15T03:48:29.489Z,1.35
2023-05-15T03:49:29.471Z,1.59
2023-05-15T03:50:29.479Z,1.80
2023-05-15T03:51:29.555Z,1.18
2023-05-15T03:52:29.606Z,1.37
2023-05-15T03:53:29.637Z,1.40
2023-05-15T03:54:29.640Z,1.57
2023-05-15T03:55:29.657Z,1.12
2023-05-15T03:56:29.690Z,1.16
2023-05-15T03:57:29.692Z,1.07
2023-05-15T03:58:29.724Z,0.99
2023-05-15T03:59:29.733Z,1.37
2023-05-15T04:00:29.766Z,1.17
2023-05-15T04:01:29.856Z,1.00
2023-05-15T04:02:29.967Z,0.94
2023-05-15T04:03:29.906Z,1.25
2023-05-15T04:04:29.945Z,1.16
2023-05-15T04:05:29.957Z,0.94
2023-05-15T04:06:29.953Z,1.28
2023-05-15T04:07:29.952Z,1.01
2023-05-15T04:08:30.060Z,1.35
2023-05-15T04:09:30.111Z,1.48
2023-05-15T04:10:30.109Z,1.38
2023-05-15T04:11:30.122Z,1.25
2023-05-15T04:12:30.149Z,1.45
2023-05-15T04:13:30.172Z,2.15
2023-05-15T04:14:30.214Z,1.49
2023-05-15T04:15:30.246Z,1.47
2023-05-15T04:16:30.363Z,1.46
2023-05-15T04:17:30.350Z,1.78
2023-05-15T04:18:30.481Z,1.48
2023-05-15T04:19:30.438Z,1.41
2023-05-15T04:20:30.459Z,1.56
2023-05-15T04:21:30.462Z,1.59
2023-05-15T04:22:30.500Z,1.45
2023-05-15T04:23:30.522Z,1.75
2023-05-15T04:24:30.573Z,1.60
2023-05-15T04:25:30.587Z,1.30
2023-05-15T04:26:30.608Z,1.33
2023-05-15T04:27:30.591Z,1.40
2023-05-15T04:28:30.690Z,1.23
2023-05-15T04:29:30.668Z,1.63
2023-05-15T04:30:30.678Z,1.83
2023-05-15T04:31:30.692Z,1.38
2023-05-15T04:32:30.672Z,1.25
2023-05-15T04:33:30.729Z,1.88
2023-05-15T04:34:30.777Z,1.87
2023-05-15T04:35:30.851Z,1.84
2023-05-15T04:36:30.850Z,1.66
2023-05-15T04:37:30.868Z,1.79
2023-05-15T04:38:30.855Z,1.42
2023-05-15T04:39:30.913Z,2.00
2023-05-15T04:40:30.924Z,1.54
2023-05-15T04:41:30.948Z,1.61
2023-05-15T04:42:30.993Z,1.72
2023-05-15T04:43:31.000Z,1.53
2023-05-15T04:44:31.104Z,2.26
2023-05-15T04:45:31.118Z,1.71
2023-05-15T04:46:31.157Z,1.48
2023-05-15T04:47:31.219Z,1.79
2023-05-15T04:48:31.230Z,1.42
2023-05-15T04:49:31.293Z,1.89
2023-05-15T04:50:31.246Z,1.63
2023-05-15T04:51:31.310Z,1.54
2023-05-15T04:52:31.372Z,1.40
2023-05-15T04:53:31.405Z,1.74
2023-05-15T04:54:31.392Z,2.18
2023-05-15T04:55:31.826Z,1.63
2023-05-15T04:56:31.444Z,1.98
2023-05-15T04:57:31.498Z,1.90
2023-05-15T04:58:31.511Z,1.66
2023-05-15T04:59:31.548Z,1.81
2023-05-15T05:00:31.550Z,1.64
2023-05-15T05:01:31.587Z,1.99
2023-05-15T05:02:31.616Z,1.85
2023-05-15T05:03:31.656Z,1.95
2023-05-15T05:04:31.607Z,1.38
2023-05-15T05:05:31.642Z,1.74
2023-05-15T05:06:31.719Z,1.73
2023-05-15T05:07:31.743Z,2.99
2023-05-15T05:08:31.764Z,1.64
2023-05-15T05:09:31.854Z,1.97
2023-05-15T05:10:31.813Z,1.96
2023-05-15T05:11:31.883Z,1.80
2023-05-15T05:12:31.874Z,1.83
2023-05-15T05:13:31.925Z,1.84
2023-05-15T05:14:31.938Z,1.92
2023-05-15T05:15:31.976Z,1.79
2023-05-15T05:16:32.007Z,1.89
2023-05-15T05:17:32.069Z,1.84
2023-05-15T05:18:32.084Z,1.55
2023-05-15T05:19:32.087Z,1.81
2023-05-15T05:20:32.100Z,1.73
2023-05-15T05:21:32.147Z,1.82
2023-05-15T05:22:32.157Z,2.08
2023-05-15T05:23:32.212Z,2.02
2023-05-15T05:24:32.281Z,1.88
2023-05-15T05:25:32.246Z,2.19
2023-05-15T05:26:32.266Z,2.07
2023-05-15T05:27:32.304Z,2.09
2023-05-15T05:28:32.312Z,1.90
2023-05-15T05:29:32.356Z,2.28
2023-05-15T05:30:32.413Z,1.69
2023-05-15T05:31:32.528Z,2.13
2023-05-15T05:32:32.568Z,1.55
2023-05-15T05:33:33.429Z,1.99
2023-05-15T05:34:32.518Z,1.80
2023-05-15T05:35:33.017Z,1.84
2023-05-15T05:36:32.609Z,1.62
2023-05-15T05:37:32.627Z,2.21
2023-05-15T05:38:32.630Z,2.05
2023-05-15T05:39:32.653Z,2.23
2023-05-15T05:40:32.650Z,1.92
2023-05-15T05:41:32.738Z,2.27
2023-05-15T05:42:32.773Z,1.89
2023-05-15T05:43:33.019Z,1.93
2023-05-15T05:44:32.851Z,1.88
2023-05-15T05:45:32.857Z,2.77
2023-05-15T05:46:32.919Z,2.07
2023-05-15T05:47:32.984Z,2.00
2023-05-15T05:48:32.894Z,2.29
2023-05-15T05:49:33.520Z,2.06
2023-05-15T05:50:32.959Z,2.80
2023-05-15T05:51:32.996Z,1.44
2023-05-15T05:52:33.024Z,2.18
2023-05-15T05:53:33.109Z,1.60
2023-05-15T05:54:33.095Z,2.17
2023-05-15T05:55:33.150Z,2.15
2023-05-15T05:56:33.231Z,2.31
2023-05-15T05:57:33.197Z,2.19
2023-05-15T05:58:33.203Z,2.07
2023-05-15T05:59:33.227Z,2.01
2023-05-15T06:00:33.272Z,2.06
2023-05-15T06:01:33.493Z,2.46
2023-05-15T06:02:33.387Z,2.05
2023-05-15T06:03:34.354Z,1.89
2023-05-15T06:04:33.319Z,1.77
2023-05-15T06:05:33.253Z,2.79
2023-05-15T06:06:33.270Z,1.99
2023-05-15T06:07:33.277Z,2.18
2023-05-15T06:08:33.282Z,1.73
2023-05-15T06:09:33.242Z,1.93
2023-05-15T06:10:33.231Z,2.01
2023-05-15T06:11:33.248Z,2.16
2023-05-15T06:12:33.239Z,1.72
2023-05-15T06:13:33.220Z,1.79
2023-05-15T06:14:33.215Z,2.04
2023-05-15T06:15:33.207Z,2.04
2023-05-15T06:16:33.267Z,1.96
2023-05-15T06:17:33.187Z,2.18
2023-05-15T06:18:33.159Z,1.85
2023-05-15T06:19:33.174Z,2.20
2023-05-15T06:20:33.251Z,2.03
2023-05-15T06:21:33.210Z,1.86
2023-05-15T06:22:33.560Z,2.36
2023-05-15T06:23:33.329Z,1.70
2023-05-15T06:24:33.510Z,2.14
2023-05-15T06:25:33.315Z,2.34
2023-05-15T06:26:33.341Z,2.19
2023-05-15T06:27:33.604Z,1.79
2023-05-15T06:28:33.435Z,2.07
2023-05-15T06:29:33.557Z,1.78
2023-05-15T06:30:33.601Z,2.18
2023-05-15T06:31:34.065Z,2.02
2023-05-15T06:32:34.535Z,1.77
2023-05-15T06:33:33.691Z,1.73
2023-05-15T06:34:33.710Z,2.06
2023-05-15T06:35:33.745Z,1.83
2023-05-15T06:36:33.819Z,1.60
2023-05-15T06:37:34.028Z,2.01
2023-05-15T06:38:34.070Z,2.22
2023-05-15T06:39:33.924Z,1.93
2023-05-15T06:40:33.941Z,2.12
2023-05-15T06:41:33.987Z,2.23
2023-05-15T06:42:34.043Z,2.15
2023-05-15T06:43:35.842Z,2.09
2023-05-15T06:44:34.117Z,1.99
2023-05-15T06:45:34.153Z,1.85
2023-05-15T06:46:34.199Z,2.25
2023-05-15T06:47:34.219Z,2.03
2023-05-15T06:48:34.536Z,1.73
2023-05-15T06:49:34.174Z,1.77
2023-05-15T06:50:34.218Z,1.99
2023-05-15T06:51:34.262Z,2.15
2023-05-15T06:52:34.281Z,2.25
2023-05-15T06:53:34.547Z,2.35
2023-05-15T06:54:34.348Z,2.18
2023-05-15T06:55:34.391Z,2.05
2023-05-15T06:56:34.442Z,2.06
2023-05-15T06:57:34.456Z,2.02
2023-05-15T06:58:34.501Z,2.16
2023-05-15T06:59:34.566Z,2.03
2023-05-15T07:00:34.513Z,1.90
2023-05-15T07:01:35.167Z,2.33
2023-05-15T07:02:34.672Z,2.25
2023-05-15T07:03:34.683Z,2.25
2023-05-15T07:04:34.731Z,1.98
2023-05-15T07:05:34.718Z,2.19
2023-05-15T07:06:34.763Z,2.37
2023-05-15T07:07:34.765Z,2.00
2023-05-15T07:08:35.166Z,2.00
2023-05-15T07:09:34.817Z,2.48
2023-05-15T07:10:34.825Z,2.59
2023-05-15T07:11:34.858Z,1.85
2023-05-15T07:12:34.844Z,2.24
2023-05-15T07:13:35.044Z,2.33
2023-05-15T07:14:34.956Z,1.97
2023-05-15T07:15:34.982Z,2.07
2023-05-15T07:16:35.075Z,2.21
2023-05-15T07:17:35.132Z,1.99
2023-05-15T07:18:35.633Z,2.14
2023-05-15T07:19:35.258Z,2.21
2023-05-15T07:20:35.503Z,2.09
2023-05-15T07:21:35.194Z,2.42
2023-05-15T07:22:44.398Z,1.72
2023-05-15T07:23:36.259Z,2.50
2023-05-15T07:24:35.301Z,2.00
2023-05-15T07:25:35.207Z,2.30
2023-05-15T07:26:43.509Z,2.14
2023-05-15T07:27:36.232Z,1.82
2023-05-15T07:28:35.221Z,1.42
2023-05-15T07:29:35.563Z,1.99
2023-05-15T07:30:35.214Z,1.74
2023-05-15T07:31:35.622Z,1.78
2023-05-15T07:32:35.593Z,1.97
2023-05-15T07:33:35.201Z,1.88
2023-05-15T07:34:35.196Z,2.20
2023-05-15T07:35:35.202Z,1.88
2023-05-15T07:36:35.212Z,1.63
2023-05-15T07:37:35.140Z,2.13
2023-05-15T07:38:35.157Z,1.92
2023-05-15T07:39:35.250Z,1.81
2023-05-15T07:40:35.136Z,1.44
2023-05-15T07:41:35.116Z,2.33
2023-05-15T07:42:35.129Z,2.02
2023-05-15T07:43:35.114Z,1.94
2023-05-15T07:44:35.198Z,1.69
2023-05-15T07:45:35.269Z,2.47
2023-05-15T07:46:35.352Z,2.05
2023-05-15T07:47:35.269Z,2.21
2023-05-15T07:48:35.287Z,2.39
2023-05-15T07:49:35.296Z,1.92
2023-05-15T07:50:35.334Z,1.90
2023-05-15T07:51:35.347Z,1.49
2023-05-15T07:52:35.353Z,2.30
2023-05-15T07:53:35.350Z,1.93
2023-05-15T07:54:35.438Z,1.92
2023-05-15T07:55:35.421Z,2.36
2023-05-15T07:56:35.540Z,1.93
2023-05-15T07:57:35.473Z,2.03
2023-05-15T07:58:35.503Z,2.11
2023-05-15T07:59:35.608Z,1.97
2023-05-15T08:00:35.599Z,2.52
2023-05-15T08:01:35.615Z,2.32
2023-05-15T08:02:35.697Z,2.34
2023-05-15T08:03:35.771Z,1.81
2023-05-15T08:04:35.866Z,1.93
2023-05-15T08:05:35.741Z,1.97
2023-05-15T08:06:35.744Z,2.21
2023-05-15T08:07:35.787Z,2.23
2023-05-15T08:08:35.798Z,2.77
2023-05-15T08:09:35.783Z,2.10
2023-05-15T08:10:35.812Z,1.91
2023-05-15T08:11:36.091Z,2.40
2023-05-15T08:12:35.858Z,2.39
2023-05-15T08:13:35.855Z,2.39
2023-05-15T08:14:35.926Z,2.04
2023-05-15T08:15:36.019Z,2.14
2023-05-15T08:16:35.960Z,1.92
2023-05-15T08:17:36.064Z,1.96
2023-05-15T08:18:36.087Z,1.87
2023-05-15T08:19:36.042Z,1.93
2023-05-15T08:20:36.044Z,1.93
2023-05-15T08:21:36.100Z,1.87
2023-05-15T08:22:36.116Z,1.69
2023-05-15T08:23:36.154Z,1.96
2023-05-15T08:24:36.199Z,2.37
2023-05-15T08:25:36.225Z,2.51
2023-05-15T08:26:36.216Z,2.11
2023-05-15T08:27:36.257Z,2.22
2023-05-15T08:28:36.307Z,1.87
2023-05-15T08:29:38.576Z,2.41
2023-05-15T08:30:36.341Z,2.09
2023-05-15T08:31:36.572Z,2.16
2023-05-15T08:32:36.308Z,2.03
2023-05-15T08:33:36.344Z,2.01
2023-05-15T08:34:36.274Z,2.24
2023-05-15T08:35:36.315Z,3.10
2023-05-15T08:36:37.732Z,2.23
2023-05-15T08:37:36.561Z,2.41
2023-05-15T08:38:36.278Z,1.99
2023-05-15T08:39:36.261Z,2.23
2023-05-15T08:40:39.550Z,2.11
2023-05-15T08:41:40.457Z,2.31
2023-05-15T08:42:36.285Z,2.12
2023-05-15T08:43:36.217Z,1.76
2023-05-15T08:44:36.660Z,1.78
2023-05-15T08:45:36.255Z,2.41
2023-05-15T08:46:36.296Z,1.93
2023-05-15T08:47:36.228Z,1.75
2023-05-15T08:48:36.302Z,1.80
2023-05-15T08:49:36.554Z,2.01
2023-05-15T08:50:36.156Z,2.40
2023-05-15T08:51:36.183Z,2.14
2023-05-15T08:52:36.194Z,1.87
2023-05-15T08:53:36.181Z,2.05
2023-05-15T08:54:36.161Z,1.70
2023-05-15T08:55:36.574Z,1.88
2023-05-15T08:56:36.597Z,1.48
2023-05-15T08:57:36.181Z,1.80
2023-05-15T08:58:36.204Z,1.72
2023-05-15T08:59:36.214Z,1.79
2023-05-15T09:00:36.251Z,1.99
2023-05-15T09:01:36.366Z,2.04
2023-05-15T09:02:36.339Z,1.97
2023-05-15T09:03:36.359Z,2.24
2023-05-15T09:04:36.407Z,1.98
2023-05-15T09:05:38.116Z,2.35
2023-05-15T09:06:36.378Z,2.00
2023-05-15T09:07:36.375Z,1.46
2023-05-15T09:08:36.384Z,1.85
2023-05-15T09:09:36.620Z,1.84
2023-05-15T09:10:36.363Z,2.12
2023-05-15T09:11:36.589Z,2.11
2023-05-15T09:12:36.371Z,1.58
2023-05-15T09:13:36.365Z,1.90
2023-05-15T09:14:36.310Z,2.06
2023-05-15T09:15:36.323Z,2.27
2023-05-15T09:16:36.355Z,1.79
2023-05-15T09:17:37.020Z,2.24
2023-05-15T09:18:36.337Z,2.65
2023-05-15T09:19:36.303Z,2.79
2023-05-15T09:20:36.323Z,3.18
2023-05-15T09:21:36.282Z,2.52
2023-05-15T09:22:36.288Z,3.41
2023-05-15T09:23:36.269Z,2.92
2023-05-15T09:24:36.286Z,2.92
2023-05-15T09:25:36.269Z,2.54
2023-05-15T09:26:36.239Z,2.99
2023-05-15T09:27:36.257Z,2.77
2023-05-15T09:28:36.266Z,2.83
2023-05-15T09:29:36.218Z,2.96
2023-05-15T09:30:36.215Z,3.03
2023-05-15T09:31:37.010Z,3.00
2023-05-15T09:32:36.632Z,3.61
2023-05-15T09:33:36.605Z,3.54
2023-05-15T09:34:36.626Z,3.23
2023-05-15T09:35:36.390Z,3.53
2023-05-15T09:36:36.192Z,3.60
2023-05-15T09:37:36.140Z,2.64
2023-05-15T09:38:36.147Z,3.35
2023-05-15T09:39:36.169Z,3.65
2023-05-15T09:40:36.127Z,3.38
2023-05-15T09:41:36.585Z,2.86
2023-05-15T09:42:36.157Z,3.69
2023-05-15T09:43:36.194Z,3.04
2023-05-15T09:44:36.568Z,3.75
2023-05-15T09:45:36.125Z,3.69
2023-05-15T09:46:36.202Z,3.92
2023-05-15T09:47:36.281Z,3.58
2023-05-15T09:48:36.349Z,3.24
2023-05-15T09:49:36.589Z,3.50
2023-05-15T09:50:36.053Z,3.34
2023-05-15T09:51:36.062Z,3.58
2023-05-15T09:52:36.083Z,3.94
2023-05-15T09:53:36.113Z,3.75
2023-05-15T09:54:36.149Z,4.14
2023-05-15T09:55:36.060Z,4.23
2023-05-15T09:56:36.104Z,3.47
2023-05-15T09:57:36.155Z,3.18
2023-05-15T09:58:36.178Z,3.76
2023-05-15T09:59:36.182Z,3.80
2023-05-15T10:00:36.229Z,4.14
2023-05-15T10:01:37.241Z,3.62
2023-05-15T10:02:36.274Z,3.38
2023-05-15T10:03:36.244Z,2.89
2023-05-15T10:04:36.221Z,3.18
2023-05-15T10:05:43.803Z,3.65
2023-05-15T10:06:37.328Z,3.31
2023-05-15T10:07:36.169Z,3.29
2023-05-15T10:08:36.170Z,3.29
2023-05-15T10:09:36.152Z,3.74
2023-05-15T10:10:36.157Z,3.51
2023-05-15T10:11:36.171Z,3.90
2023-05-15T10:12:36.577Z,3.60
2023-05-15T10:13:36.578Z,3.11
2023-05-15T10:14:36.147Z,3.84
2023-05-15T10:15:36.168Z,3.42
2023-05-15T10:16:36.280Z,2.82
2023-05-15T10:17:36.139Z,3.05
2023-05-15T10:18:36.148Z,3.14
2023-05-15T10:19:41.501Z,3.20
2023-05-15T10:20:37.200Z,3.56
2023-05-15T10:21:36.109Z,2.90
2023-05-15T10:22:36.153Z,3.12
2023-05-15T10:23:36.136Z,2.88
2023-05-15T10:24:36.138Z,3.05
2023-05-15T10:25:36.141Z,2.87
2023-05-15T10:26:36.151Z,3.14
2023-05-15T10:27:36.118Z,3.02
2023-05-15T10:28:36.137Z,3.20
2023-05-15T10:29:36.114Z,2.82
2023-05-15T10:30:36.075Z,2.66
2023-05-15T10:31:36.139Z,2.70
2023-05-15T10:32:36.089Z,2.67
2023-05-15T10:33:36.048Z,2.53
2023-05-15T10:34:36.061Z,2.63
2023-05-15T10:35:36.082Z,2.39
2023-05-15T10:36:36.108Z,2.76
2023-05-15T10:37:36.111Z,2.24
2023-05-15T10:38:36.123Z,2.42
2023-05-15T10:39:36.190Z,2.30
2023-05-15T10:40:36.221Z,2.73
2023-05-15T10:41:36.233Z,2.79
2023-05-15T10:42:36.211Z,2.35
2023-05-15T10:43:36.270Z,2.16
2023-05-15T10:44:36.349Z,2.29
2023-05-15T10:45:36.371Z,2.47
2023-05-15T10:46:36.446Z,2.18
2023-05-15T10:47:36.459Z,2.37
2023-05-15T10:48:36.472Z,2.46
2023-05-15T10:49:36.491Z,1.82
2023-05-15T10:50:36.579Z,2.31
2023-05-15T10:51:36.589Z,2.68
2023-05-15T10:52:36.625Z,2.06
2023-05-15T10:53:36.659Z,1.99
2023-05-15T10:54:36.710Z,2.36
2023-05-15T10:55:36.710Z,2.25
2023-05-15T10:56:36.743Z,2.04
2023-05-15T10:57:36.749Z,2.25
2023-05-15T10:58:36.811Z,2.56
2023-05-15T10:59:36.907Z,2.75
2023-05-15T11:00:36.883Z,2.17
2023-05-15T11:01:36.999Z,1.99
2023-05-15T11:02:37.014Z,2.24
2023-05-15T11:03:47.899Z,2.17
2023-05-15T11:04:37.983Z,2.54
2023-05-15T11:05:36.947Z,2.89
2023-05-15T11:06:36.980Z,2.27
2023-05-15T11:07:36.993Z,1.86
2023-05-15T11:08:36.925Z,2.60
2023-05-15T11:09:36.948Z,2.55
2023-05-15T11:10:36.918Z,2.70
2023-05-15T11:11:36.909Z,2.40
2023-05-15T11:12:36.916Z,2.30
2023-05-15T11:13:37.086Z,2.43
2023-05-15T11:14:36.876Z,2.47
2023-05-15T11:15:36.895Z,2.73
2023-05-15T11:16:36.911Z,2.48
2023-05-15T11:17:36.931Z,2.08
2023-05-15T11:18:36.870Z,2.11
2023-05-15T11:19:37.180Z,2.06
2023-05-15T11:20:37.261Z,2.02
2023-05-15T11:21:36.938Z,1.85
2023-05-15T11:22:36.977Z,1.98
2023-05-15T11:23:37.012Z,2.15
2023-05-15T11:24:37.049Z,1.76
2023-05-15T11:25:37.124Z,2.01
2023-05-15T11:26:37.104Z,1.84
2023-05-15T11:27:37.168Z,1.87
2023-05-15T11:28:37.227Z,1.81
2023-05-15T11:29:37.607Z,1.43
2023-05-15T11:30:37.274Z,1.88
2023-05-15T11:31:37.359Z,1.66
2023-05-15T11:32:37.394Z,2.17
2023-05-15T11:33:37.356Z,2.44
2023-05-15T11:34:37.389Z,1.90
2023-05-15T11:35:37.375Z,2.53
2023-05-15T11:36:37.791Z,2.36
2023-05-15T11:37:37.493Z,2.07
2023-05-15T11:38:37.488Z,2.54
2023-05-15T11:39:37.534Z,3.45
2023-05-15T11:40:37.554Z,3.85
2023-05-15T11:41:37.619Z,3.41
2023-05-15T11:42:37.632Z,3.16
2023-05-15T11:43:37.672Z,3.18
2023-05-15T11:44:37.698Z,3.24
2023-05-15T11:45:37.749Z,3.17
2023-05-15T11:46:37.794Z,2.74
2023-05-15T11:47:37.756Z,2.38
2023-05-15T11:48:37.803Z,3.27
2023-05-15T11:49:37.885Z,2.94
2023-05-15T11:50:37.876Z,3.01
2023-05-15T11:51:37.889Z,3.01
2023-05-15T11:52:37.929Z,3.10
2023-05-15T11:53:37.958Z,2.90
2023-05-15T11:54:37.981Z,3.08
2023-05-15T11:55:38.012Z,2.82
2023-05-15T11:56:38.045Z,3.16
2023-05-15T11:57:38.157Z,3.46
2023-05-15T11:58:38.146Z,3.49
2023-05-15T11:59:38.178Z,3.68
2023-05-15T12:00:38.212Z,3.78
2023-05-15T12:01:38.212Z,3.10
2023-05-15T12:02:38.390Z,2.97
2023-05-15T12:03:38.619Z,3.21
2023-05-15T12:04:38.405Z,3.05
2023-05-15T12:05:42.359Z,2.35
2023-05-15T12:06:39.347Z,3.14
2023-05-15T12:07:38.342Z,2.98
2023-05-15T12:08:38.339Z,2.21
2023-05-15T12:09:38.360Z,2.20
2023-05-15T12:10:38.346Z,2.16
2023-05-15T12:11:38.313Z,2.43
2023-05-15T12:12:38.313Z,1.95
2023-05-15T12:13:38.340Z,2.38
2023-05-15T12:14:38.329Z,2.15
2023-05-15T12:15:38.345Z,2.39
2023-05-15T12:16:38.369Z,2.19
2023-05-15T12:17:38.332Z,2.40
2023-05-15T12:18:38.374Z,1.96
2023-05-15T12:19:38.683Z,2.19
2023-05-15T12:20:38.400Z,2.13
2023-05-15T12:21:38.421Z,2.57
2023-05-15T12:22:38.464Z,2.15
2023-05-15T12:23:38.468Z,2.27
2023-05-15T12:24:38.543Z,2.33
2023-05-15T12:25:38.583Z,2.17
2023-05-15T12:26:38.627Z,2.53
2023-05-15T12:27:38.623Z,1.98
2023-05-15T12:28:38.636Z,2.07
2023-05-15T12:29:38.673Z,2.61
2023-05-15T12:30:38.724Z,2.24
2023-05-15T12:31:38.744Z,2.93
2023-05-15T12:32:38.853Z,2.31
2023-05-15T12:33:38.828Z,2.50
2023-05-15T12:34:38.849Z,2.45
2023-05-15T12:35:38.881Z,2.62
2023-05-15T12:36:38.944Z,2.44
2023-05-15T12:37:38.971Z,2.55
2023-05-15T12:38:39.058Z,2.45
2023-05-15T12:39:39.037Z,2.29
2023-05-15T12:40:39.152Z,2.81
2023-05-15T12:41:39.156Z,3.01
2023-05-15T12:42:39.156Z,2.39
2023-05-15T12:43:39.176Z,3.00
2023-05-15T12:44:39.175Z,2.61
2023-05-15T12:45:39.273Z,2.71
2023-05-15T12:46:39.246Z,2.63
2023-05-15T12:47:39.278Z,2.33
2023-05-15T12:48:39.277Z,2.40
2023-05-15T12:49:39.305Z,2.51
2023-05-15T12:50:39.348Z,2.76
2023-05-15T12:51:39.385Z,2.01
2023-05-15T12:52:39.654Z,2.23
2023-05-15T12:53:39.909Z,2.17
2023-05-15T12:54:39.478Z,2.27
2023-05-15T12:55:39.525Z,2.18
2023-05-15T12:56:39.503Z,2.26
2023-05-15T12:57:39.550Z,2.08
2023-05-15T12:58:39.498Z,2.28
2023-05-15T12:59:39.505Z,2.37
2023-05-15T13:00:40.161Z,1.53
2023-05-15T13:01:39.577Z,1.82
2023-05-15T13:02:39.699Z,2.06
2023-05-15T13:03:39.717Z,1.68
2023-05-15T13:04:39.641Z,1.64
2023-05-15T13:05:39.673Z,1.91
2023-05-15T13:06:46.543Z,2.13
2023-05-15T13:07:40.763Z,1.85
2023-05-15T13:08:39.713Z,1.64
2023-05-15T13:09:39.706Z,1.99
2023-05-15T13:10:39.708Z,1.50
2023-05-15T13:11:39.724Z,1.38
2023-05-15T13:12:39.704Z,1.66
2023-05-15T13:13:39.723Z,1.70
2023-05-15T13:14:39.678Z,1.73
2023-05-15T13:15:39.704Z,1.69
2023-05-15T13:16:39.770Z,1.39
2023-05-15T13:17:39.748Z,1.69
2023-05-15T13:18:39.672Z,1.56